• Join FlightAware (Why Join?)
  • Login
  • US Flag 
06:48AM EDT


 

Airport Tracker/Info


-or-


 

Live Flight TrackerFlight Track Log ✈ CTL312 ✈ 25-Apr-2013 ✈ KBKL - KHAO

Flight Track Log - Related Links

Times and Time Zones

All times are in EDT time to prevent confusion due to time zone crossing. See the CTL312 flight status page for this flight to view local times or setup timezone preferences in your user account.

Time Position Orientation Groundspeed Altitude Reporting Facility
EDT Latitude Longitude Course Direction KTS MPH feet Rate Location/Type
06:36PM 41.5167 -81.7061 300° West 113 130 1,200  Level Cleveland Center
06:36PM 41.5228 -81.7203 300° West 118 136 1,500 540 Climbing Cleveland Center
06:37PM 41.5453 -81.7706 301° West 144 166 2,100 540 Climbing Cleveland Center
06:38PM 41.5489 -81.8094 277° West 137 158 2,700 540 Climbing Cleveland Center
06:40PM 41.5394 -81.9203 264° West 141 162 3,800 420 Climbing Cleveland Center
06:41PM 41.5347 -81.9728 263° West 145 167 4,100 120 Climbing Cleveland Center
06:43PM 41.5233 -82.0336 256° West 141 162 4,100  Level Cleveland Center
06:43PM 41.5186 -82.0833 263° West 144 166 4,100  Level Cleveland Center
06:44PM 41.4869 -82.1189 220° Southwest 154 177 4,100  Level Cleveland Center
06:47PM 41.4192 -82.1967 221° Southwest 152 175 4,100  Level Indianapolis Center
06:48PM 41.3883 -82.2369 224° Southwest 153 176 4,100  Level Indianapolis Center
06:49PM 41.3500 -82.2822 222° Southwest 155 178 4,100 -60 Level Indianapolis Center
06:50PM 41.3150 -82.3219 220° Southwest 160 184 4,000 -120 Descending Indianapolis Center
06:51PM 41.2814 -82.3600 220° Southwest 159 183 3,900  Descending Indianapolis Center
06:52PM 41.2478 -82.3972 220° Southwest 157 181 4,000 60 Climbing Indianapolis Center
06:53PM 41.2153 -82.4358 222° Southwest 156 180 4,100  Climbing Indianapolis Center
06:54PM 41.1831 -82.4750 222° Southwest 156 180 4,000 -60 Descending Indianapolis Center
06:55PM 41.1508 -82.5125 221° Southwest 155 178 4,000  Level Indianapolis Center
06:56PM 41.1117 -82.5550 219° Southwest 154 177 4,000  Level Indianapolis Center
06:57PM 41.0786 -82.5939 222° Southwest 156 180 4,100  Climbing Indianapolis Center
06:58PM 41.0461 -82.6317 221° Southwest 155 178 4,000 -60 Descending Indianapolis Center
06:59PM 41.0128 -82.6706 221° Southwest 156 180 4,000  Level Indianapolis Center
07:00PM 40.9797 -82.7069 220° Southwest 156 180 4,000  Level Indianapolis Center
07:01PM 40.9489 -82.7464 224° Southwest 155 178 4,000  Level Indianapolis Center
07:02PM 40.9153 -82.7833 220° Southwest 154 177 4,000  Level Indianapolis Center
07:03PM 40.8769 -82.8258 220° Southwest 154 177 4,000  Level Indianapolis Center
07:04PM 40.8428 -82.8631 219° Southwest 155 178 4,000  Level Indianapolis Center
07:05PM 40.8119 -82.9022 224° Southwest 155 178 4,000 -60 Level Indianapolis Center
07:06PM 40.7797 -82.9419 223° Southwest 156 180 3,900 -60 Descending Indianapolis Center
07:07PM 40.7478 -82.9808 223° Southwest 156 180 3,900  Level Indianapolis Center
07:08PM 40.7144 -83.0189 221° Southwest 156 180 3,900  Level Indianapolis Center
07:09PM 40.6822 -83.0586 223° Southwest 157 181 4,000  Climbing Indianapolis Center
07:11PM 40.6492 -83.0967 221° Southwest 157 181 4,000  Level Indianapolis Center
07:12PM 40.6094 -83.1428 221° Southwest 159 183 4,000  Level Indianapolis Center
07:13PM 40.5750 -83.1811 220° Southwest 160 184 4,100  Climbing Indianapolis Center
07:14PM 40.5425 -83.2206 223° Southwest 159 183 4,100  Level Indianapolis Center
07:15PM 40.5092 -83.2581 221° Southwest 158 182 4,100 -60 Level Indianapolis Center
07:15PM 40.4808 -83.2886 219° Southwest 157 181 4,000  Descending Indianapolis Center
07:16PM 40.4514 -83.3233 222° Southwest 157 181 4,100 60 Climbing Indianapolis Center
07:17PM 40.4411 -83.3314 211° Southwest 157 181 4,100  Level Indianapolis Center
07:17PM 40.4194 -83.3606 226° Southwest 157 181 4,100  Level Indianapolis Center
07:18PM 40.4081 -83.3694 211° Southwest 158 182 4,100  Level Indianapolis Center
07:18PM 40.3831 -83.4000 223° Southwest 156 180 4,100  Level Indianapolis Center
07:19PM 40.3764 -83.4069 218° Southwest 155 178 4,100  Level Indianapolis Center
07:19PM 40.3508 -83.4397 224° Southwest 156 180 4,100 60 Level Indianapolis Center
07:20PM 40.3375 -83.4519 215° Southwest 156 180 4,200  Climbing Indianapolis Center
07:20PM 40.3169 -83.4739 219° Southwest 156 180 4,100  Descending Indianapolis Center
07:21PM 40.3042 -83.4892 222° Southwest 157 181 4,200  Climbing Indianapolis Center
07:21PM 40.2850 -83.5111 221° Southwest 156 180 4,100 -120 Descending Indianapolis Center
07:22PM 40.2719 -83.5267 222° Southwest 156 180 4,100 -120 Level Indianapolis Center
07:22PM 40.2528 -83.5508 224° Southwest 156 180 4,000 60 Descending Indianapolis Center
07:23PM 40.2383 -83.5631 213° Southwest 156 180 4,200 60 Climbing Indianapolis Center
07:24PM 40.2097 -83.5947 220° Southwest 159 183 4,100 -120 Descending Indianapolis Center
07:24PM 40.2047 -83.6006 222° Southwest 156 180 4,100  Level Indianapolis Center
07:25PM 40.1800 -83.6292 221° Southwest 159 183 4,100  Level Indianapolis Center
07:25PM 40.1711 -83.6392 221° Southwest 158 182 4,100 -120 Level Indianapolis Center
07:26PM 40.1478 -83.6689 224° Southwest 158 182 4,000  Descending Indianapolis Center
07:26PM 40.1383 -83.6789 219° Southwest 159 183 4,100 60 Climbing Indianapolis Center
07:27PM 40.1136 -83.7083 222° Southwest 162 186 4,100  Level Indianapolis Center
07:27PM 40.1053 -83.7181 222° Southwest 159 183 4,100 -120 Level Indianapolis Center
07:28PM 40.0794 -83.7447 218° Southwest 160 184 4,000 -120 Descending Indianapolis Center
07:28PM 40.0656 -83.7622 224° Southwest 160 184 4,000 60 Level Indianapolis Center
07:28PM 40.0494 -83.7792 219° Southwest 157 181 4,100 60 Climbing Indianapolis Center
07:29PM 40.0331 -83.8003 225° Southwest 158 182 4,100 -120 Level Indianapolis Center
07:30PM 40.0172 -83.8186 222° Southwest 159 183 4,000 -120 Descending Indianapolis Center
07:30PM 39.9989 -83.8381 219° Southwest 159 183 4,000 60 Level Indianapolis Center
07:31PM 39.9831 -83.8553 220° Southwest 158 182 4,100 60 Climbing Indianapolis Center
07:31PM 39.9658 -83.8769 224° Southwest 159 183 4,100  Level Indianapolis Center
07:32PM 39.9419 -83.9017 218° Southwest 160 184 4,100 -120 Level Indianapolis Center
07:32PM 39.9319 -83.9133 222° Southwest 158 182 4,000  Descending Indianapolis Center
07:33PM 39.9142 -83.9336 221° Southwest 159 183 4,100 60 Climbing Indianapolis Center
07:33PM 39.8972 -83.9494 216° Southwest 158 182 4,100  Level Indianapolis Center
07:34PM 39.8800 -83.9700 222° Southwest 159 183 4,100  Level Indianapolis Center
07:34PM 39.8639 -83.9892 222° Southwest 160 184 4,100  Level Indianapolis Center
07:35PM 39.8456 -84.0089 220° Southwest 160 184 4,100  Level Indianapolis Center
07:35PM 39.8244 -84.0344 223° Southwest 161 185 4,100 -120 Level Indianapolis Center
07:36PM 39.8133 -84.0481 223° Southwest 162 186 4,000 -120 Descending Indianapolis Center
07:36PM 39.7900 -84.0722 219° Southwest 161 185 4,000  Level Indianapolis Center
07:37PM 39.7547 -84.1103 220° Southwest 162 186 4,000 60 Level Indianapolis Center
07:38PM 39.7425 -84.1231 219° Southwest 163 188 4,100  Climbing Indianapolis Center
07:38PM 39.7200 -84.1475 220° Southwest 162 186 4,000  Descending Indianapolis Center
07:39PM 39.7036 -84.1642 218° Southwest 161 185 4,100  Climbing Indianapolis Center
07:39PM 39.6850 -84.1861 222° Southwest 163 188 4,000 -120 Descending Indianapolis Center
07:40PM 39.6669 -84.2028 215° Southwest 162 186 4,000  Level Indianapolis Center
07:40PM 39.6494 -84.2222 221° Southwest 162 186 4,000  Level Indianapolis Center
07:41PM 39.6142 -84.2592 219° Southwest 161 185 4,000  Level Indianapolis Center
07:42PM 39.5775 -84.2958 218° Southwest 163 188 4,000  Level Indianapolis Center
07:43PM 39.5314 -84.3344 213° Southwest 166 191 4,000  Level Indianapolis Center
07:45PM 39.4808 -84.3353 181° South 178 205 4,000 -60 Level Indianapolis Center
07:46PM 39.4319 -84.3400 184° South 177 204 3,900 -180 Descending Indianapolis Center
07:47PM 39.3925 -84.3447 185° South 174 200 3,700 -240 Descending Indianapolis Center
07:49PM 39.4348 -84.4365 301° West  Level FlightAware Approximate
07:56PM 39.3638 -84.5219 218° Southwest  Level Estimated
07:57PM 39.3638 -84.5219 218° Southwest  Level Estimated
07:58PM 39.3638 -84.5219 218° Southwest  Level Estimated
07:59PM 39.3638 -84.5219 218° Southwest  Level Estimated